sensor_id;sensor_type;location;lat;lon;timestamp;pressure;altitude;pressure_sealevel;temperature;humidity
74075;BME280;62428;51.412;5.432;2022-11-20T00:01:59;101140.38;;;-0.22;75.02
74075;BME280;62428;51.412;5.432;2022-11-20T00:04:24;101138.56;;;-0.22;76.15
74075;BME280;62428;51.412;5.432;2022-11-20T00:06:50;101142.81;;;-0.21;77.32
74075;BME280;62428;51.412;5.432;2022-11-20T00:09:15;101142.63;;;-0.26;77.32
74075;BME280;62428;51.412;5.432;2022-11-20T00:11:40;101137.78;;;-0.29;76.90
74075;BME280;62428;51.412;5.432;2022-11-20T00:14:06;101137.41;;;-0.32;77.99
74075;BME280;62428;51.412;5.432;2022-11-20T00:16:32;101134.00;;;-0.40;77.47
74075;BME280;62428;51.412;5.432;2022-11-20T00:18:58;101141.53;;;-0.43;77.45
74075;BME280;62428;51.412;5.432;2022-11-20T00:21:26;101139.28;;;-0.46;77.89
74075;BME280;62428;51.412;5.432;2022-11-20T00:23:54;101130.38;;;-0.45;78.31
74075;BME280;62428;51.412;5.432;2022-11-20T00:26:20;101125.28;;;-0.47;78.39
74075;BME280;62428;51.412;5.432;2022-11-20T00:28:54;101130.56;;;-0.47;77.83
74075;BME280;62428;51.412;5.432;2022-11-20T00:31:19;101130.56;;;-0.47;78.34
74075;BME280;62428;51.412;5.432;2022-11-20T00:33:45;101122.66;;;-0.47;78.38
74075;BME280;62428;51.412;5.432;2022-11-20T00:36:13;101134.22;;;-0.48;78.91
74075;BME280;62428;51.412;5.432;2022-11-20T00:38:39;101134.44;;;-0.49;79.36
74075;BME280;62428;51.412;5.432;2022-11-20T00:41:07;101133.81;;;-0.51;79.37
74075;BME280;62428;51.412;5.432;2022-11-20T00:43:33;101137.72;;;-0.54;79.33
74075;BME280;62428;51.412;5.432;2022-11-20T00:45:59;101130.19;;;-0.57;78.74
74075;BME280;62428;51.412;5.432;2022-11-20T00:48:25;101128.59;;;-0.58;78.11
74075;BME280;62428;51.412;5.432;2022-11-20T00:50:51;101134.88;;;-0.59;78.50
74075;BME280;62428;51.412;5.432;2022-11-20T00:53:17;101133.03;;;-0.59;79.54
74075;BME280;62428;51.412;5.432;2022-11-20T00:55:42;101126.38;;;-0.61;79.69
74075;BME280;62428;51.412;5.432;2022-11-20T00:58:07;101128.22;;;-0.62;80.18
74075;BME280;62428;51.412;5.432;2022-11-20T01:00:33;101130.25;;;-0.64;79.82
74075;BME280;62428;51.412;5.432;2022-11-20T01:02:58;101127.81;;;-0.65;80.17
74075;BME280;62428;51.412;5.432;2022-11-20T01:05:23;101128.81;;;-0.66;79.94
74075;BME280;62428;51.412;5.432;2022-11-20T01:07:49;101126.38;;;-0.68;79.83
74075;BME280;62428;51.412;5.432;2022-11-20T01:10:14;101132.31;;;-0.72;79.87
74075;BME280;62428;51.412;5.432;2022-11-20T01:12:39;101127.03;;;-0.72;80.40
74075;BME280;62428;51.412;5.432;2022-11-20T01:15:05;101127.25;;;-0.74;80.13
74075;BME280;62428;51.412;5.432;2022-11-20T01:17:31;101126.44;;;-0.74;80.45
74075;BME280;62428;51.412;5.432;2022-11-20T01:19:57;101126.22;;;-0.73;80.04
74075;BME280;62428;51.412;5.432;2022-11-20T01:22:22;101138.97;;;-0.70;80.35
74075;BME280;62428;51.412;5.432;2022-11-20T01:24:47;101131.47;;;-0.66;80.73
74075;BME280;62428;51.412;5.432;2022-11-20T01:27:13;101127.81;;;-0.65;80.19
74075;BME280;62428;51.412;5.432;2022-11-20T01:29:38;101131.25;;;-0.65;80.02
74075;BME280;62428;51.412;5.432;2022-11-20T01:32:03;101133.28;;;-0.60;80.47
74075;BME280;62428;51.412;5.432;2022-11-20T01:34:29;101129.00;;;-0.54;80.82
74075;BME280;62428;51.412;5.432;2022-11-20T01:36:54;101123.50;;;-0.53;80.30
74075;BME280;62428;51.412;5.432;2022-11-20T01:39:25;101125.69;;;-0.50;79.41
74075;BME280;62428;51.412;5.432;2022-11-20T01:41:52;101114.72;;;-0.47;79.77
74075;BME280;62428;51.412;5.432;2022-11-20T01:44:54;101121.41;;;-0.44;80.49
74075;BME280;62428;51.412;5.432;2022-11-20T01:47:25;101122.44;;;-0.45;80.83
74075;BME280;62428;51.412;5.432;2022-11-20T01:49:59;101132.41;;;-0.47;79.33
74075;BME280;62428;51.412;5.432;2022-11-20T01:52:30;101137.91;;;-0.49;79.96
74075;BME280;62428;51.412;5.432;2022-11-20T01:55:09;101132.81;;;-0.50;79.72
74075;BME280;62428;51.412;5.432;2022-11-20T01:57:35;101136.84;;;-0.48;80.35
74075;BME280;62428;51.412;5.432;2022-11-20T02:00:20;101129.13;;;-0.43;80.58
74075;BME280;62428;51.412;5.432;2022-11-20T02:02:51;101120.19;;;-0.42;80.10
74075;BME280;62428;51.412;5.432;2022-11-20T02:07:52;101116.28;;;-0.32;80.06
74075;BME280;62428;51.412;5.432;2022-11-20T02:10:18;101116.28;;;-0.32;78.57
74075;BME280;62428;51.412;5.432;2022-11-20T02:12:43;101118.75;;;-0.37;78.52
74075;BME280;62428;51.412;5.432;2022-11-20T02:15:28;101121.16;;;-0.36;79.71
74075;BME280;62428;51.412;5.432;2022-11-20T02:17:53;101121.97;;;-0.35;79.70
74075;BME280;62428;51.412;5.432;2022-11-20T02:20:19;101118.75;;;-0.37;80.10
74075;BME280;62428;51.412;5.432;2022-11-20T02:23:25;101116.09;;;-0.37;79.64
74075;BME280;62428;51.412;5.432;2022-11-20T02:25:54;101108.19;;;-0.37;79.95
74075;BME280;62428;51.412;5.432;2022-11-20T02:28:20;101115.09;;;-0.36;79.34
74075;BME280;62428;51.412;5.432;2022-11-20T02:30:45;101114.84;;;-0.35;79.23
74075;BME280;62428;51.412;5.432;2022-11-20T02:33:12;101112.22;;;-0.35;79.50
74075;BME280;62428;51.412;5.432;2022-11-20T02:35:42;101112.22;;;-0.35;80.03
74075;BME280;62428;51.412;5.432;2022-11-20T02:38:08;101106.94;;;-0.35;80.39
74075;BME280;62428;51.412;5.432;2022-11-20T02:40:34;101108.56;;;-0.34;80.41
74075;BME280;62428;51.412;5.432;2022-11-20T02:42:59;101110.41;;;-0.34;79.50
74075;BME280;62428;51.412;5.432;2022-11-20T02:45:24;101103.69;;;-0.37;79.89
74075;BME280;62428;51.412;5.432;2022-11-20T02:47:50;101107.75;;;-0.34;80.11
74075;BME280;62428;51.412;5.432;2022-11-20T02:50:16;101112.41;;;-0.30;80.42
74075;BME280;62428;51.412;5.432;2022-11-20T02:52:42;101108.53;;;-0.27;80.67
74075;BME280;62428;51.412;5.432;2022-11-20T02:55:07;101102.81;;;-0.24;80.78
74075;BME280;62428;51.412;5.432;2022-11-20T02:57:33;101106.28;;;-0.24;80.68
74075;BME280;62428;51.412;5.432;2022-11-20T02:59:58;101111.31;;;-0.22;80.06
74075;BME280;62428;51.412;5.432;2022-11-20T03:02:23;101109.94;;;-0.25;79.99
74075;BME280;62428;51.412;5.432;2022-11-20T03:04:49;101106.50;;;-0.25;80.71
74075;BME280;62428;51.412;5.432;2022-11-20T03:07:14;101102.59;;;-0.23;80.89
74075;BME280;62428;51.412;5.432;2022-11-20T03:09:40;101102.41;;;-0.21;80.56
74075;BME280;62428;51.412;5.432;2022-11-20T03:12:05;101104.03;;;-0.20;81.05
74075;BME280;62428;51.412;5.432;2022-11-20T03:14:31;101099.34;;;-0.18;79.95
74075;BME280;62428;51.412;5.432;2022-11-20T03:16:56;101103.38;;;-0.15;80.66
74075;BME280;62428;51.412;5.432;2022-11-20T03:19:22;101095.66;;;-0.17;79.62
74075;BME280;62428;51.412;5.432;2022-11-20T03:21:47;101091.19;;;-0.16;80.19
74075;BME280;62428;51.412;5.432;2022-11-20T03:24:13;101090.38;;;-0.17;80.46
74075;BME280;62428;51.412;5.432;2022-11-20T03:26:39;101092.81;;;-0.15;80.31
74075;BME280;62428;51.412;5.432;2022-11-20T03:29:05;101085.69;;;-0.15;80.54
74075;BME280;62428;51.412;5.432;2022-11-20T03:31:34;101089.94;;;-0.14;81.38
74075;BME280;62428;51.412;5.432;2022-11-20T03:34:00;101084.66;;;-0.14;80.18
74075;BME280;62428;51.412;5.432;2022-11-20T03:36:27;101076.75;;;-0.14;80.41
74075;BME280;62428;51.412;5.432;2022-11-20T03:38:53;101071.69;;;-0.15;80.45
74075;BME280;62428;51.412;5.432;2022-11-20T03:41:21;101076.75;;;-0.14;80.85
74075;BME280;62428;51.412;5.432;2022-11-20T03:43:48;101067.78;;;-0.13;81.13
74075;BME280;62428;51.412;5.432;2022-11-20T03:46:13;101073.06;;;-0.13;80.53
74075;BME280;62428;51.412;5.432;2022-11-20T03:48:39;101062.75;;;-0.14;80.70
74075;BME280;62428;51.412;5.432;2022-11-20T03:51:08;101063.75;;;-0.15;80.49
74075;BME280;62428;51.412;5.432;2022-11-20T03:53:33;101070.88;;;-0.16;81.03
74075;BME280;62428;51.412;5.432;2022-11-20T03:55:59;101070.06;;;-0.16;81.14
74075;BME280;62428;51.412;5.432;2022-11-20T03:58:24;101071.09;;;-0.17;79.99
74075;BME280;62428;51.412;5.432;2022-11-20T04:00:49;101056.25;;;-0.18;80.74
74075;BME280;62428;51.412;5.432;2022-11-20T04:03:15;101057.06;;;-0.18;80.98
74075;BME280;62428;51.412;5.432;2022-11-20T04:05:40;101043.41;;;-0.15;81.04
74075;BME280;62428;51.412;5.432;2022-11-20T04:08:05;101047.09;;;-0.16;80.31
74075;BME280;62428;51.412;5.432;2022-11-20T04:10:31;101048.13;;;-0.17;80.95
74075;BME280;62428;51.412;5.432;2022-11-20T04:12:56;101057.06;;;-0.18;80.19
74075;BME280;62428;51.412;5.432;2022-11-20T04:15:21;101067.44;;;-0.16;80.64
74075;BME280;62428;51.412;5.432;2022-11-20T04:17:47;101055.81;;;-0.15;81.80
74075;BME280;62428;51.412;5.432;2022-11-20T04:20:12;101045.84;;;-0.13;81.46
74075;BME280;62428;51.412;5.432;2022-11-20T04:22:37;101060.69;;;-0.12;81.54
74075;BME280;62428;51.412;5.432;2022-11-20T04:25:03;101054.38;;;-0.11;81.74
74075;BME280;62428;51.412;5.432;2022-11-20T04:27:30;101053.78;;;-0.13;81.69
74075;BME280;62428;51.412;5.432;2022-11-20T04:29:55;101047.47;;;-0.12;81.74
74075;BME280;62428;51.412;5.432;2022-11-20T04:32:20;101051.94;;;-0.13;80.68
74075;BME280;62428;51.412;5.432;2022-11-20T04:34:46;101051.94;;;-0.13;81.69
74075;BME280;62428;51.412;5.432;2022-11-20T04:37:11;101051.50;;;-0.10;81.37
74075;BME280;62428;51.412;5.432;2022-11-20T04:39:36;101055.78;;;-0.09;81.46
74075;BME280;62428;51.412;5.432;2022-11-20T04:42:02;101048.88;;;-0.10;80.93
74075;BME280;62428;51.412;5.432;2022-11-20T04:44:45;101056.38;;;-0.07;81.52
74075;BME280;62428;51.412;5.432;2022-11-20T04:47:11;101045.81;;;-0.07;81.13
74075;BME280;62428;51.412;5.432;2022-11-20T04:49:36;101042.13;;;-0.06;80.52
74075;BME280;62428;51.412;5.432;2022-11-20T04:52:01;101039.50;;;-0.06;80.87
74075;BME280;62428;51.412;5.432;2022-11-20T04:54:27;101036.84;;;-0.06;80.88
74075;BME280;62428;51.412;5.432;2022-11-20T04:56:52;101041.31;;;-0.06;79.76
74075;BME280;62428;51.412;5.432;2022-11-20T04:59:17;101038.31;;;-0.10;80.55
74075;BME280;62428;51.412;5.432;2022-11-20T05:01:42;101036.47;;;-0.09;80.43
74075;BME280;62428;51.412;5.432;2022-11-20T05:04:08;101032.81;;;-0.08;80.39
74075;BME280;62428;51.412;5.432;2022-11-20T05:06:33;101035.25;;;-0.07;80.55
74075;BME280;62428;51.412;5.432;2022-11-20T05:08:59;101025.47;;;-0.06;80.31
74075;BME280;62428;51.412;5.432;2022-11-20T05:11:26;101029.97;;;-0.07;80.48
74075;BME280;62428;51.412;5.432;2022-11-20T05:13:54;101022.03;;;-0.07;81.35
74075;BME280;62428;51.412;5.432;2022-11-20T05:16:24;101024.88;;;-0.08;81.32
74075;BME280;62428;51.412;5.432;2022-11-20T05:18:50;101016.16;;;-0.09;81.08
74075;BME280;62428;51.412;5.432;2022-11-20T05:21:16;101018.81;;;-0.09;81.68
74075;BME280;62428;51.412;5.432;2022-11-20T05:23:43;101010.88;;;-0.09;82.48
74075;BME280;62428;51.412;5.432;2022-11-20T05:26:16;101007.41;;;-0.09;81.76
74075;BME280;62428;51.412;5.432;2022-11-20T05:28:42;101011.69;;;-0.08;82.32
74075;BME280;62428;51.412;5.432;2022-11-20T05:31:12;101008.03;;;-0.07;82.01
74075;BME280;62428;51.412;5.432;2022-11-20T05:33:42;101008.25;;;-0.09;82.02
74075;BME280;62428;51.412;5.432;2022-11-20T05:36:09;101010.06;;;-0.09;82.06
74075;BME280;62428;51.412;5.432;2022-11-20T05:38:34;101010.88;;;-0.09;82.14
74075;BME280;62428;51.412;5.432;2022-11-20T05:41:07;101011.25;;;-0.05;82.33
74075;BME280;62428;51.412;5.432;2022-11-20T05:43:37;101015.50;;;-0.04;83.52
74075;BME280;62428;51.412;5.432;2022-11-20T05:46:04;101017.94;;;-0.03;82.43
74075;BME280;62428;51.412;5.432;2022-11-20T05:48:30;101016.91;;;-0.02;82.93
74075;BME280;62428;51.412;5.432;2022-11-20T05:50:59;101019.56;;;-0.02;82.84
74075;BME280;62428;51.412;5.432;2022-11-20T05:53:25;101023.81;;;-0.01;82.33
74075;BME280;62428;51.412;5.432;2022-11-20T05:58:23;101035.19;;;0.00;83.69
74075;BME280;62428;51.412;5.432;2022-11-20T06:00:48;101040.47;;;0.00;83.14
74075;BME280;62428;51.412;5.432;2022-11-20T06:03:14;101038.84;;;-0.01;83.23
74075;BME280;62428;51.412;5.432;2022-11-20T06:05:39;101042.50;;;-0.02;83.27
74075;BME280;62428;51.412;5.432;2022-11-20T06:08:04;101049.63;;;-0.03;83.58
74075;BME280;62428;51.412;5.432;2022-11-20T06:10:30;101045.97;;;-0.02;83.50
74075;BME280;62428;51.412;5.432;2022-11-20T06:12:57;101051.06;;;0.00;83.54
74075;BME280;62428;51.412;5.432;2022-11-20T06:15:22;101030.72;;;0.01;83.02
74075;BME280;62428;51.412;5.432;2022-11-20T06:17:52;101034.97;;;0.02;82.76
74075;BME280;62428;51.412;5.432;2022-11-20T06:20:17;101034.75;;;0.03;83.08
74075;BME280;62428;51.412;5.432;2022-11-20T06:22:43;101033.72;;;0.04;82.94
74075;BME280;62428;51.412;5.432;2022-11-20T06:25:08;101031.88;;;0.05;82.45
74075;BME280;62428;51.412;5.432;2022-11-20T06:27:33;101030.88;;;0.06;83.01
74075;BME280;62428;51.412;5.432;2022-11-20T06:29:58;101042.25;;;0.06;83.14
74075;BME280;62428;51.412;5.432;2022-11-20T06:32:24;101042.84;;;0.08;83.13
74075;BME280;62428;51.412;5.432;2022-11-20T06:34:49;101032.28;;;0.08;83.01
74075;BME280;62428;51.412;5.432;2022-11-20T06:37:14;101028.63;;;0.09;83.00
74075;BME280;62428;51.412;5.432;2022-11-20T06:39:40;101033.91;;;0.09;82.92
74075;BME280;62428;51.412;5.432;2022-11-20T06:42:05;101024.13;;;0.10;82.77
74075;BME280;62428;51.412;5.432;2022-11-20T06:44:30;101024.13;;;0.10;82.22
74075;BME280;62428;51.412;5.432;2022-11-20T06:46:56;101015.41;;;0.09;83.12
74075;BME280;62428;51.412;5.432;2022-11-20T06:49:21;101021.28;;;0.11;83.20
74075;BME280;62428;51.412;5.432;2022-11-20T06:51:46;101022.66;;;0.14;83.31
74075;BME280;62428;51.412;5.432;2022-11-20T06:54:12;101011.09;;;0.15;83.21
74075;BME280;62428;51.412;5.432;2022-11-20T06:56:37;101012.91;;;0.14;83.16
74075;BME280;62428;51.412;5.432;2022-11-20T06:59:06;101019.22;;;0.13;83.22
74075;BME280;62428;51.412;5.432;2022-11-20T07:01:31;101025.31;;;0.14;83.23
74075;BME280;62428;51.412;5.432;2022-11-20T07:03:57;101022.66;;;0.14;83.78
74075;BME280;62428;51.412;5.432;2022-11-20T07:06:22;101024.28;;;0.15;83.58
74075;BME280;62428;51.412;5.432;2022-11-20T07:08:50;101016.38;;;0.15;84.14
74075;BME280;62428;51.412;5.432;2022-11-20T07:11:16;101017.16;;;0.15;83.40
74075;BME280;62428;51.412;5.432;2022-11-20T07:13:41;101011.09;;;0.15;83.97
74075;BME280;62428;51.412;5.432;2022-11-20T07:16:07;101010.72;;;0.11;83.36
74075;BME280;62428;51.412;5.432;2022-11-20T07:18:33;101007.03;;;0.12;83.43
74075;BME280;62428;51.412;5.432;2022-11-20T07:21:07;101005.41;;;0.11;83.85
74075;BME280;62428;51.412;5.432;2022-11-20T07:23:32;101003.00;;;0.10;84.04
74075;BME280;62428;51.412;5.432;2022-11-20T07:25:58;101011.72;;;0.10;83.96
74075;BME280;62428;51.412;5.432;2022-11-20T07:28:23;101011.50;;;0.12;83.91
74075;BME280;62428;51.412;5.432;2022-11-20T07:30:52;101013.94;;;0.13;84.07
74075;BME280;62428;51.412;5.432;2022-11-20T07:33:18;101006.81;;;0.14;84.53
74075;BME280;62428;51.412;5.432;2022-11-20T07:35:44;101011.09;;;0.15;84.65
74075;BME280;62428;51.412;5.432;2022-11-20T07:38:10;101011.66;;;0.17;85.03
74075;BME280;62428;51.412;5.432;2022-11-20T07:40:35;101009.41;;;0.21;85.00
74075;BME280;62428;51.412;5.432;2022-11-20T07:43:00;101005.72;;;0.22;85.04
74075;BME280;62428;51.412;5.432;2022-11-20T07:45:26;101005.72;;;0.22;84.52
74075;BME280;62428;51.412;5.432;2022-11-20T07:47:51;101007.75;;;0.19;83.97
74075;BME280;62428;51.412;5.432;2022-11-20T07:50:17;101010.63;;;0.18;84.40
74075;BME280;62428;51.412;5.432;2022-11-20T07:52:42;101003.28;;;0.20;84.32
74075;BME280;62428;51.412;5.432;2022-11-20T07:55:09;101014.69;;;0.21;84.03
74075;BME280;62428;51.412;5.432;2022-11-20T07:57:34;101012.63;;;0.23;84.86
74075;BME280;62428;51.412;5.432;2022-11-20T08:00:00;101026.63;;;0.23;84.65
74075;BME280;62428;51.412;5.432;2022-11-20T08:02:25;101018.50;;;0.25;84.27
74075;BME280;62428;51.412;5.432;2022-11-20T08:04:51;101009.78;;;0.24;84.48
74075;BME280;62428;51.412;5.432;2022-11-20T08:07:16;101012.19;;;0.26;84.60
74075;BME280;62428;51.412;5.432;2022-11-20T08:09:41;101021.72;;;0.27;84.42
74075;BME280;62428;51.412;5.432;2022-11-20T08:12:07;101006.47;;;0.29;84.67
74075;BME280;62428;51.412;5.432;2022-11-20T08:14:50;101013.16;;;0.31;84.81
74075;BME280;62428;51.412;5.432;2022-11-20T08:17:16;101007.88;;;0.31;84.80
74075;BME280;62428;51.412;5.432;2022-11-20T08:19:41;101013.28;;;0.36;84.70
74075;BME280;62428;51.412;5.432;2022-11-20T08:22:06;101008.81;;;0.37;84.50
74075;BME280;62428;51.412;5.432;2022-11-20T08:24:32;101010.44;;;0.38;84.90
74075;BME280;62428;51.412;5.432;2022-11-20T08:27:00;101015.28;;;0.41;84.97
74075;BME280;62428;51.412;5.432;2022-11-20T08:29:26;101017.50;;;0.44;84.64
74075;BME280;62428;51.412;5.432;2022-11-20T08:31:52;101013.38;;;0.48;84.76
74075;BME280;62428;51.412;5.432;2022-11-20T08:34:17;101011.91;;;0.52;85.20
74075;BME280;62428;51.412;5.432;2022-11-20T08:36:43;101019.41;;;0.55;85.04
74075;BME280;62428;51.412;5.432;2022-11-20T08:39:13;101019.19;;;0.57;85.04
74075;BME280;62428;51.412;5.432;2022-11-20T08:41:39;101018.97;;;0.59;85.50
74075;BME280;62428;51.412;5.432;2022-11-20T08:44:06;101015.06;;;0.61;85.70
74075;BME280;62428;51.412;5.432;2022-11-20T08:46:37;101009.56;;;0.63;85.31
74075;BME280;62428;51.412;5.432;2022-11-20T08:49:04;101004.66;;;0.66;85.32
74075;BME280;62428;51.412;5.432;2022-11-20T08:51:30;101018.25;;;0.70;85.52
74075;BME280;62428;51.412;5.432;2022-11-20T08:53:55;101009.25;;;0.71;85.82
74075;BME280;62428;51.412;5.432;2022-11-20T08:56:21;101007.19;;;0.73;85.96
74075;BME280;62428;51.412;5.432;2022-11-20T08:58:46;101007.56;;;0.76;86.08
74075;BME280;62428;51.412;5.432;2022-11-20T09:01:11;101008.97;;;0.79;86.07
74075;BME280;62428;51.412;5.432;2022-11-20T09:03:37;101010.34;;;0.82;86.56
74075;BME280;62428;51.412;5.432;2022-11-20T09:06:05;101009.13;;;0.84;86.64
74075;BME280;62428;51.412;5.432;2022-11-20T09:08:31;101001.75;;;0.86;86.70
74075;BME280;62428;51.412;5.432;2022-11-20T09:10:57;101004.19;;;0.88;86.78
74075;BME280;62428;51.412;5.432;2022-11-20T09:13:24;100994.41;;;0.88;87.57
74075;BME280;62428;51.412;5.432;2022-11-20T09:16:07;100990.72;;;0.89;87.86
74075;BME280;62428;51.412;5.432;2022-11-20T09:18:34;100999.25;;;0.91;88.20
74075;BME280;62428;51.412;5.432;2022-11-20T09:21:04;100986.84;;;0.92;88.20
74075;BME280;62428;51.412;5.432;2022-11-20T09:23:34;100992.28;;;0.97;88.64
74075;BME280;62428;51.412;5.432;2022-11-20T09:26:09;100993.44;;;1.01;88.74
74075;BME280;62428;51.412;5.432;2022-11-20T09:28:34;100981.78;;;1.02;89.03
74075;BME280;62428;51.412;5.432;2022-11-20T09:31:00;100970.78;;;1.05;89.12
74075;BME280;62428;51.412;5.432;2022-11-20T09:33:26;100963.19;;;1.09;89.36
74075;BME280;62428;51.412;5.432;2022-11-20T09:35:51;100969.63;;;1.13;89.49
74075;BME280;62428;51.412;5.432;2022-11-20T09:38:17;100962.06;;;1.17;89.39
74075;BME280;62428;51.412;5.432;2022-11-20T09:40:51;100963.47;;;1.19;89.43
74075;BME280;62428;51.412;5.432;2022-11-20T09:43:49;100954.47;;;1.20;89.38
74075;BME280;62428;51.412;5.432;2022-11-20T09:46:20;100952.41;;;1.22;89.38
74075;BME280;62428;51.412;5.432;2022-11-20T09:51:39;100948.66;;;1.30;89.26
74075;BME280;62428;51.412;5.432;2022-11-20T09:56:45;100941.84;;;1.34;89.67
74075;BME280;62428;51.412;5.432;2022-11-20T09:59:44;100937.50;;;1.40;89.08
74075;BME280;62428;51.412;5.432;2022-11-20T10:10:42;100902.50;;;1.49;89.23
74075;BME280;62428;51.412;5.432;2022-11-20T10:13:24;100893.31;;;1.52;89.29
74075;BME280;62428;51.412;5.432;2022-11-20T10:18:58;100883.97;;;1.61;89.65
74075;BME280;62428;51.412;5.432;2022-11-20T10:24:43;100863.81;;;1.72;88.99
74075;BME280;62428;51.412;5.432;2022-11-20T10:32:39;100878.44;;;1.86;89.54
74075;BME280;62428;51.412;5.432;2022-11-20T10:35:26;100873.72;;;1.88;89.46
74075;BME280;62428;51.412;5.432;2022-11-20T10:38:01;100866.91;;;1.92;89.32
74075;BME280;62428;51.412;5.432;2022-11-20T10:40:40;100870.91;;;1.95;89.28
74075;BME280;62428;51.412;5.432;2022-11-20T10:43:11;100862.75;;;1.97;89.61
74075;BME280;62428;51.412;5.432;2022-11-20T10:46:00;100852.97;;;1.97;89.36
74075;BME280;62428;51.412;5.432;2022-11-20T10:48:30;100846.38;;;2.00;89.72
74075;BME280;62428;51.412;5.432;2022-11-20T11:01:44;100816.84;;;2.08;89.85
74075;BME280;62428;51.412;5.432;2022-11-20T11:04:23;100817.19;;;2.11;90.09
74075;BME280;62428;51.412;5.432;2022-11-20T11:06:58;100818.56;;;2.14;90.31
74075;BME280;62428;51.412;5.432;2022-11-20T11:09:34;100825.25;;;2.17;90.60
74075;BME280;62428;51.412;5.432;2022-11-20T11:12:06;100820.50;;;2.19;90.77
74075;BME280;62428;51.412;5.432;2022-11-20T11:14:42;100810.47;;;2.21;90.48
74075;BME280;62428;51.412;5.432;2022-11-20T11:17:20;100804.13;;;2.22;90.34
74075;BME280;62428;51.412;5.432;2022-11-20T11:19:56;100801.03;;;2.25;90.60
74075;BME280;62428;51.412;5.432;2022-11-20T11:22:22;100806.66;;;2.28;91.23
74075;BME280;62428;51.412;5.432;2022-11-20T11:24:53;100801.91;;;2.30;91.20
74075;BME280;62428;51.412;5.432;2022-11-20T11:27:19;100800.63;;;2.33;90.92
74075;BME280;62428;51.412;5.432;2022-11-20T11:29:45;100796.13;;;2.34;90.40
74075;BME280;62428;51.412;5.432;2022-11-20T11:32:14;100793.47;;;2.34;90.96
74075;BME280;62428;51.412;5.432;2022-11-20T11:34:40;100792.22;;;2.36;91.26
74075;BME280;62428;51.412;5.432;2022-11-20T11:37:13;100787.47;;;2.38;91.35
74075;BME280;62428;51.412;5.432;2022-11-20T11:39:42;100786.19;;;2.41;91.41
74075;BME280;62428;51.412;5.432;2022-11-20T11:42:12;100773.50;;;2.43;91.36
74075;BME280;62428;51.412;5.432;2022-11-20T11:44:44;100773.00;;;2.46;91.82
74075;BME280;62428;51.412;5.432;2022-11-20T11:52:58;100751.97;;;2.56;91.19
74075;BME280;62428;51.412;5.432;2022-11-20T11:58:11;100749.41;;;2.61;91.65
74075;BME280;62428;51.412;5.432;2022-11-20T12:00:45;100742.00;;;2.63;91.85
74075;BME280;62428;51.412;5.432;2022-11-20T12:03:28;100729.53;;;2.64;92.03
74075;BME280;62428;51.412;5.432;2022-11-20T12:06:00;100721.13;;;2.67;92.23
74075;BME280;62428;51.412;5.432;2022-11-20T12:08:57;100707.34;;;2.70;92.07
74075;BME280;62428;51.412;5.432;2022-11-20T12:14:03;100711.38;;;2.73;92.81
74075;BME280;62428;51.412;5.432;2022-11-20T12:16:36;100698.66;;;2.75;92.87
74075;BME280;62428;51.412;5.432;2022-11-20T12:19:08;100688.38;;;2.78;92.70
74075;BME280;62428;51.412;5.432;2022-11-20T12:22:08;100681.78;;;2.81;93.24
74075;BME280;62428;51.412;5.432;2022-11-20T12:29:59;100662.31;;;2.92;93.00
74075;BME280;62428;51.412;5.432;2022-11-20T12:47:32;100638.13;;;3.11;93.27
74075;BME280;62428;51.412;5.432;2022-11-20T12:52:56;100619.34;;;3.17;93.49
74075;BME280;62428;51.412;5.432;2022-11-20T13:00:54;100608.06;;;3.27;93.62
74075;BME280;62428;51.412;5.432;2022-11-20T13:03:41;100595.59;;;3.27;93.48
74075;BME280;62428;51.412;5.432;2022-11-20T13:06:18;100590.56;;;3.31;93.77
74075;BME280;62428;51.412;5.432;2022-11-20T13:08:56;100573.88;;;3.36;93.63
74075;BME280;62428;51.412;5.432;2022-11-20T13:11:30;100569.94;;;3.38;93.76
74075;BME280;62428;51.412;5.432;2022-11-20T13:16:46;100560.97;;;3.44;93.81
74075;BME280;62428;51.412;5.432;2022-11-20T13:19:16;100557.03;;;3.47;93.85
74075;BME280;62428;51.412;5.432;2022-11-20T13:21:44;100561.00;;;3.50;93.88
74075;BME280;62428;51.412;5.432;2022-11-20T13:24:26;100554.16;;;3.54;94.29
74075;BME280;62428;51.412;5.432;2022-11-20T13:29:26;100541.47;;;3.61;94.30
74075;BME280;62428;51.412;5.432;2022-11-20T13:32:22;100536.44;;;3.64;94.32
74075;BME280;62428;51.412;5.432;2022-11-20T13:34:53;100530.88;;;3.66;94.00
74075;BME280;62428;51.412;5.432;2022-11-20T13:37:34;100524.00;;;3.70;94.35
74075;BME280;62428;51.412;5.432;2022-11-20T13:45:24;100506.53;;;3.74;94.52
74075;BME280;62428;51.412;5.432;2022-11-20T13:47:52;100503.03;;;3.74;94.33
74075;BME280;62428;51.412;5.432;2022-11-20T13:50:18;100501.22;;;3.74;94.27
74075;BME280;62428;51.412;5.432;2022-11-20T13:57:56;100483.69;;;3.78;94.89
74075;BME280;62428;51.412;5.432;2022-11-20T14:00:25;100481.56;;;3.80;94.53
74075;BME280;62428;51.412;5.432;2022-11-20T14:03:31;100476.00;;;3.82;94.41
74075;BME280;62428;51.412;5.432;2022-11-20T14:06:00;100477.34;;;3.84;94.84
74075;BME280;62428;51.412;5.432;2022-11-20T14:08:40;100476.84;;;3.88;95.38
74075;BME280;62428;51.412;5.432;2022-11-20T14:14:04;100463.31;;;3.89;95.20
74075;BME280;62428;51.412;5.432;2022-11-20T14:16:34;100463.06;;;3.91;95.70
74075;BME280;62428;51.412;5.432;2022-11-20T14:21:44;100449.19;;;3.89;95.37
74075;BME280;62428;51.412;5.432;2022-11-20T14:24:11;100443.09;;;3.88;95.76
74075;BME280;62428;51.412;5.432;2022-11-20T14:26:41;100448.94;;;3.90;96.14
74075;BME280;62428;51.412;5.432;2022-11-20T14:29:16;100450.56;;;3.91;96.78
74075;BME280;62428;51.412;5.432;2022-11-20T14:31:42;100442.31;;;3.93;96.35
74075;BME280;62428;51.412;5.432;2022-11-20T14:34:29;100442.31;;;3.93;96.75
74075;BME280;62428;51.412;5.432;2022-11-20T14:37:05;100438.84;;;3.92;97.04
74075;BME280;62428;51.412;5.432;2022-11-20T14:39:37;100423.72;;;3.93;97.25
74075;BME280;62428;51.412;5.432;2022-11-20T14:42:17;100423.47;;;3.94;97.48
74075;BME280;62428;51.412;5.432;2022-11-20T14:44:43;100422.66;;;3.94;97.10
74075;BME280;62428;51.412;5.432;2022-11-20T14:47:10;100413.38;;;3.96;97.36